Time;durP1;ratioP1;P1;durP2;ratioP2;P2;SDS_P1;SDS_P2;PMS_P1;PMS_P2;Temp;Humidity;BMP_temperature;BMP_pressure;BME280_temperature;BME280_humidity;BME280_pressure;Samples;Min_cycle;Max_cycle;Signal;HPM_P1;HPM_P2
2023/05/24 00:01:47;;;;;;;22.67;2.63;;;;;;;7.16;49.10;102198.69;5083259;28;20035;-71
2023/05/24 00:04:13;;;;;;;13.23;1.98;;;;;;;7.17;49.29;102190.84;5074726;27;20043;-70
2023/05/24 00:06:40;;;;;;;14.52;2.70;;;;;;;7.24;48.62;102192.56;5075483;28;20523;-70
2023/05/24 00:09:06;;;;;;;18.92;2.58;;;;;;;7.07;48.85;102197.00;5059364;28;20043;-70
2023/05/24 00:11:31;;;;;;;15.52;3.40;;;;;;;7.20;48.61;102188.25;5095311;27;20038;-71
2023/05/24 00:13:57;;;;;;;20.40;2.38;;;;;;;7.42;48.28;102185.53;5081225;28;20039;-70
2023/05/24 00:16:22;;;;;;;21.90;2.95;;;;;;;7.27;48.92;102187.34;5076832;28;20032;-70
2023/05/24 00:18:48;;;;;;;15.48;2.65;;;;;;;7.19;49.02;102191.72;5082099;28;20594;-70
2023/05/24 00:21:14;;;;;;;17.38;4.00;;;;;;;7.25;48.68;102193.44;5077936;28;20043;-70
2023/05/24 00:23:40;;;;;;;19.45;2.60;;;;;;;7.35;48.60;102187.31;5074309;28;20043;-69
2023/05/24 00:26:07;;;;;;;18.67;2.58;;;;;;;7.20;48.99;102188.25;5080725;28;20462;-70
2023/05/24 00:28:33;;;;;;;15.82;2.92;;;;;;;7.35;48.68;102183.84;5094792;27;20051;-69
2023/05/24 00:30:59;;;;;;;14.35;2.40;;;;;;;7.50;48.41;102183.75;5080175;28;20043;-69
2023/05/24 00:33:26;;;;;;;19.98;2.35;;;;;;;7.50;48.24;102181.16;5078506;27;20032;-69
2023/05/24 00:35:55;;;;;;;23.73;3.15;;;;;;;7.48;48.13;102181.16;5079084;27;20130;-71
2023/05/24 00:38:27;;;;;;;17.98;3.75;;;;;;;7.40;48.62;102179.47;5071272;28;20051;-68
2023/05/24 00:40:55;;;;;;;;;;;;;;;7.50;47.77;102175.94;5084138;27;20189;-69
2023/05/24 00:43:21;;;;;;;14.35;2.78;;;;;;;7.54;47.73;102177.66;5071566;28;19919;-69
2023/05/24 00:45:47;;;;;;;12.68;2.47;;;;;;;7.47;48.24;102173.38;5072269;28;20748;-69
2023/05/24 00:48:13;;;;;;;23.42;2.30;;;;;;;7.42;47.82;102170.81;5058873;28;20047;-69
2023/05/24 00:50:39;;;;;;;21.13;1.83;;;;;;;7.30;48.15;102176.94;5060874;28;20028;-71
2023/05/24 00:53:06;;;;;;;19.80;3.33;;;;;;;7.26;48.28;102174.34;5079430;27;20516;-69
2023/05/24 00:55:33;;;;;;;12.13;1.85;;;;;;;7.26;48.60;102167.41;5085539;28;20035;-69
2023/05/24 00:57:59;;;;;;;14.60;2.30;;;;;;;7.30;48.36;102170.88;5077489;27;20111;-71
2023/05/24 01:00:26;;;;;;;18.95;2.38;;;;;;;7.43;47.94;102167.31;5068861;28;20039;-69
2023/05/24 01:02:53;;;;;;;27.25;3.53;;;;;;;7.51;47.94;102169.84;5085634;28;20032;-70
2023/05/24 01:05:20;;;;;;;17.58;2.88;;;;;;;7.57;47.71;102175.06;5078497;28;20035;-70
2023/05/24 01:08:09;;;;;;;26.25;3.75;;;;;;;7.32;47.73;102169.97;5080267;28;20047;-69
2023/05/24 01:11:00;;;;;;;18.00;2.28;;;;;;;7.33;47.84;102170.84;5085875;27;20612;-69
2023/05/24 01:13:53;;;;;;;16.35;2.10;;;;;;;7.30;47.56;102170.88;5078254;27;20028;-69
2023/05/24 01:16:35;;;;;;;15.55;4.22;;;;;;;7.65;46.98;102165.47;5074653;28;20049;-70
2023/05/24 01:19:11;;;;;;;10.90;2.05;;;;;;;7.48;47.34;102177.69;5086347;28;20064;-71
2023/05/24 01:21:47;;;;;;;15.02;2.42;;;;;;;7.60;47.47;102175.06;5076131;28;20040;-70
2023/05/24 01:24:31;;;;;;;16.75;2.17;;;;;;;7.80;47.17;102166.22;5075013;27;20040;-70
2023/05/24 01:27:07;;;;;;;17.00;1.60;;;;;;;7.48;47.94;102175.09;5076931;28;20449;-71
2023/05/24 01:29:34;;;;;;;17.88;3.38;;;;;;;7.42;48.41;102168.22;5084565;28;20060;-70
2023/05/24 01:32:01;;;;;;;12.45;2.28;;;;;;;7.56;48.38;102172.47;5075827;28;20118;-70
2023/05/24 01:34:27;;;;;;;14.55;2.22;;;;;;;7.60;48.34;102174.19;5079361;28;20036;-69
2023/05/24 01:36:52;;;;;;;15.95;2.20;;;;;;;7.56;48.79;102170.75;5078011;28;20363;-70
2023/05/24 01:39:19;;;;;;;21.02;2.42;;;;;;;7.61;48.57;102174.19;5076395;28;20028;-69
2023/05/24 01:42:05;;;;;;;8.73;2.50;;;;;;;7.54;48.52;102175.06;5068940;28;20036;-70
2023/05/24 01:44:37;;;;;;;14.77;2.10;;;;;;;7.16;49.73;102178.75;5077839;28;20035;-70
2023/05/24 01:47:40;;;;;;;19.15;3.13;;;;;;;7.79;48.13;102172.31;5078370;28;20036;-70
2023/05/24 01:50:27;;;;;;;14.07;2.42;;;;;;;7.82;48.07;102170.53;5066712;28;20254;-71
2023/05/24 01:52:57;;;;;;;19.35;2.72;;;;;;;7.62;48.95;102173.28;5092906;27;20112;-70
2023/05/24 01:55:26;;;;;;;20.45;2.35;;;;;;;7.63;48.62;102168.97;5058643;28;20445;-72
2023/05/24 01:57:57;;;;;;;19.45;2.20;;;;;;;7.51;48.54;102165.53;5084273;28;20039;-72
2023/05/24 02:00:23;;;;;;;24.17;2.78;;;;;;;7.40;48.80;102167.34;5083317;28;20066;-69
2023/05/24 02:02:52;;;;;;;7.20;1.85;;;;;;;7.69;48.34;102161.97;5082812;27;20493;-70
2023/05/24 02:05:17;;;;;;;24.67;2.67;;;;;;;7.53;48.90;102162.91;5079062;28;20042;-73
2023/05/24 02:07:43;;;;;;;9.98;1.83;;;;;;;7.24;49.25;102158.75;5081634;28;20545;-69
2023/05/24 02:10:08;;;;;;;11.60;2.35;;;;;;;7.42;49.09;102167.31;5083292;28;20024;-73
2023/05/24 02:12:34;;;;;;;25.52;2.58;;;;;;;7.65;48.57;102159.41;5077532;27;20067;-68
2023/05/24 02:15:00;;;;;;;18.75;2.05;;;;;;;7.73;48.27;102155.88;5066663;28;20027;-70
2023/05/24 02:17:26;;;;;;;12.93;2.50;;;;;;;7.69;48.42;102159.38;5076245;27;20028;-73
2023/05/24 02:19:52;;;;;;;16.30;2.80;;;;;;;7.67;48.74;102149.88;5077858;28;20104;-72
2023/05/24 02:22:17;;;;;;;19.35;3.00;;;;;;;7.58;49.13;102158.59;5083028;27;20507;-71
2023/05/24 02:24:43;;;;;;;14.60;2.70;;;;;;;7.80;48.51;102163.63;5071745;28;20024;-72
2023/05/24 02:27:08;;;;;;;26.33;3.28;;;;;;;7.88;48.59;102157.47;5086853;28;20043;-72
2023/05/24 02:29:34;;;;;;;18.52;2.40;;;;;;;7.53;49.42;102157.72;5075202;28;21577;-71
2023/05/24 02:31:59;;;;;;;15.90;2.85;;;;;;;7.76;48.78;102156.72;5081292;28;20032;-73
2023/05/24 02:34:24;;;;;;;10.60;2.33;;;;;;;7.79;48.57;102154.09;5061004;28;20036;-70
2023/05/24 02:36:50;;;;;;;19.77;2.60;;;;;;;7.31;49.91;102151.78;5077070;28;20120;-71
2023/05/24 02:39:16;;;;;;;15.68;2.55;;;;;;;7.60;49.35;102153.34;5076296;28;20051;-71
2023/05/24 02:41:42;;;;;;;18.85;2.83;;;;;;;7.64;49.19;102158.53;5077806;28;20027;-72
2023/05/24 02:44:07;;;;;;;21.42;2.40;;;;;;;7.78;48.87;102152.34;5077750;28;20147;-72
2023/05/24 02:46:32;;;;;;;14.05;2.38;;;;;;;7.87;48.48;102153.16;5072453;28;20061;-70
2023/05/24 02:48:58;;;;;;;16.30;3.05;;;;;;;7.92;48.51;102155.72;5108657;27;20450;-70
2023/05/24 02:51:24;;;;;;;11.57;1.55;;;;;;;7.68;48.68;102156.78;5075429;28;20553;-71
2023/05/24 02:53:50;;;;;;;16.75;2.45;;;;;;;7.93;48.05;102154.84;5077495;28;20063;-70
2023/05/24 02:56:18;;;;;;;14.20;2.95;;;;;;;7.88;48.68;102149.69;5076050;28;20031;-72
2023/05/24 02:58:44;;;;;;;19.52;4.55;;;;;;;7.87;48.67;102141.88;5076543;27;20039;-72
2023/05/24 03:01:14;;;;;;;17.90;2.20;;;;;;;8.00;48.23;102146.09;5068331;28;20258;-71
2023/05/24 03:03:39;;;;;;;19.15;2.55;;;;;;;8.02;48.65;102143.47;5079266;28;20036;-72
2023/05/24 03:06:06;;;;;;;25.25;3.63;;;;;;;7.65;49.54;102146.41;5085452;28;20154;-71
2023/05/24 03:08:33;;;;;;;12.50;2.47;;;;;;;7.83;49.23;102146.25;5076807;28;20527;-71
2023/05/24 03:10:58;;;;;;;20.25;1.95;;;;;;;7.93;48.91;102147.88;5080175;28;20055;-71
2023/05/24 03:13:24;;;;;;;20.52;4.07;;;;;;;7.66;49.75;102148.13;5088246;27;20150;-71
2023/05/24 03:15:49;;;;;;;13.57;3.58;;;;;;;8.01;48.58;102141.78;5076698;28;20063;-72
2023/05/24 03:18:15;;;;;;;21.52;2.95;;;;;;;7.98;48.50;102140.06;5067856;28;20047;-72
2023/05/24 03:20:43;;;;;;;17.50;3.08;;;;;;;7.93;48.72;102147.03;5078834;28;20076;-70
2023/05/24 03:23:08;;;;;;;22.40;3.33;;;;;;;7.94;48.91;102146.16;5075405;28;20762;-71
2023/05/24 03:25:34;;;;;;;16.75;1.65;;;;;;;7.70;49.06;102145.47;5071308;28;20050;-72
2023/05/24 03:28:01;;;;;;;16.10;2.22;;;;;;;8.11;48.36;102151.22;5069988;28;20032;-72
2023/05/24 03:30:27;;;;;;;25.23;2.78;;;;;;;8.20;48.04;102147.66;5061774;28;20599;-71
2023/05/24 03:32:55;;;;;;;16.85;2.72;;;;;;;7.85;48.88;102143.66;5076500;28;20039;-72
2023/05/24 03:35:21;;;;;;;12.30;2.72;;;;;;;7.84;49.56;102149.72;5074160;28;20562;-71
2023/05/24 03:37:47;;;;;;;16.17;2.53;;;;;;;7.81;49.64;102147.16;5080666;28;20058;-72
2023/05/24 03:40:14;;;;;;;17.40;1.98;;;;;;;8.10;49.22;102160.78;5108334;27;20071;-71
2023/05/24 03:42:52;;;;;;;15.18;2.20;;;;;;;8.02;49.37;102159.09;5065882;28;20580;-71
2023/05/24 03:45:22;;;;;;;20.75;2.97;;;;;;;7.67;49.26;102161.13;5075251;28;20024;-72
2023/05/24 03:47:47;;;;;;;12.25;2.88;;;;;;;7.53;49.51;102152.50;5060631;28;20039;-71
2023/05/24 03:50:13;;;;;;;23.10;3.00;;;;;;;7.91;48.82;102148.78;5077225;28;20114;-72
2023/05/24 03:52:38;;;;;;;8.15;2.13;;;;;;;8.01;48.93;102150.44;5070516;28;20119;-72
2023/05/24 03:55:05;;;;;;;15.45;2.47;;;;;;;8.08;48.82;102151.25;5075798;28;20519;-71
2023/05/24 03:57:30;;;;;;;12.98;3.75;;;;;;;7.92;49.74;102156.59;5073501;28;20036;-71
2023/05/24 03:59:56;;;;;;;22.85;4.25;;;;;;;7.58;50.12;102145.59;5077557;28;20697;-71
2023/05/24 04:02:21;;;;;;;13.88;3.55;;;;;;;7.99;49.40;102153.94;5107362;27;20065;-71
2023/05/24 04:04:47;;;;;;;16.17;2.85;;;;;;;8.23;48.54;102150.25;5067346;28;20063;-72
2023/05/24 04:07:14;;;;;;;22.10;2.35;;;;;;;8.21;48.45;102149.41;5079736;28;20122;-72
2023/05/24 04:09:40;;;;;;;15.45;2.00;;;;;;;7.96;48.12;102136.63;5086488;27;20051;-71
2023/05/24 04:12:05;;;;;;;18.95;3.20;;;;;;;8.15;48.06;102138.16;5079778;27;20089;-72
2023/05/24 04:14:31;;;;;;;16.67;2.70;;;;;;;8.18;48.30;102147.66;5078735;27;20455;-72
2023/05/24 04:16:57;;;;;;;18.98;3.28;;;;;;;7.94;48.87;102144.44;5081563;27;20039;-71
2023/05/24 04:19:23;;;;;;;20.17;2.65;;;;;;;7.95;49.05;102145.28;5081284;27;20036;-70
2023/05/24 04:21:49;;;;;;;18.65;2.53;;;;;;;8.26;48.36;102150.22;5081070;27;20067;-72
2023/05/24 04:24:15;;;;;;;19.15;2.15;;;;;;;8.12;48.01;102147.75;5071010;28;20040;-71
2023/05/24 04:26:42;;;;;;;9.35;2.35;;;;;;;8.09;48.03;102143.44;5082097;27;20853;-73
2023/05/24 04:29:07;;;;;;;16.23;2.85;;;;;;;8.20;48.27;102145.06;5111117;27;20301;-72
2023/05/24 04:31:33;;;;;;;13.73;3.28;;;;;;;8.05;48.26;102152.16;5061731;28;20440;-72
2023/05/24 04:33:59;;;;;;;21.50;2.55;;;;;;;8.10;48.68;102152.09;5086310;27;20484;-72
2023/05/24 04:36:25;;;;;;;22.58;3.55;;;;;;;8.28;48.24;102153.66;5077730;27;20046;-70
2023/05/24 04:38:54;;;;;;;18.58;3.20;;;;;;;8.22;48.28;102153.72;5085184;27;20042;-71
2023/05/24 04:41:21;;;;;;;14.90;2.33;;;;;;;8.24;48.28;102151.97;5079991;27;20032;-72
2023/05/24 04:43:46;;;;;;;17.20;3.08;;;;;;;8.36;47.96;102152.72;5078207;27;20092;-71
2023/05/24 04:46:12;;;;;;;14.68;3.15;;;;;;;8.35;48.26;102148.38;5080868;27;20434;-73
2023/05/24 04:48:37;;;;;;;17.70;2.95;;;;;;;8.44;48.01;102165.66;5075604;27;20054;-71
2023/05/24 04:51:03;;;;;;;15.80;2.65;;;;;;;8.31;48.45;102167.50;5083487;27;20046;-71
2023/05/24 04:53:29;;;;;;;11.65;3.35;;;;;;;8.29;48.33;102165.78;5075147;27;20120;-73
2023/05/24 04:55:54;;;;;;;13.40;3.10;;;;;;;8.02;49.04;102162.56;5080037;27;20068;-73
2023/05/24 04:58:20;;;;;;;25.15;3.85;;;;;;;8.34;48.87;102171.84;5081272;27;20039;-72
2023/05/24 05:00:45;;;;;;;17.17;2.65;;;;;;;8.44;48.24;102165.66;5074823;27;20634;-71
2023/05/24 05:03:11;;;;;;;21.00;3.30;;;;;;;8.57;48.07;102177.66;5078091;27;20723;-72
2023/05/24 05:05:36;;;;;;;16.38;3.25;;;;;;;8.53;48.38;102175.97;5078210;27;20028;-71
2023/05/24 05:08:02;;;;;;;11.25;2.13;;;;;;;8.65;47.67;102179.31;5079822;27;20043;-72
2023/05/24 05:10:29;;;;;;;13.73;1.88;;;;;;;8.24;48.24;102188.44;5077329;28;20597;-72
2023/05/24 05:12:54;;;;;;;12.60;2.58;;;;;;;8.46;47.62;102184.72;5078764;27;20057;-72
2023/05/24 05:15:21;;;;;;;15.43;2.67;;;;;;;8.46;47.55;102189.94;5082420;27;20036;-70
2023/05/24 05:17:47;;;;;;;18.95;2.53;;;;;;;8.24;48.50;102188.44;5077461;27;20233;-72
2023/05/24 05:20:12;;;;;;;29.15;3.42;;;;;;;8.36;47.97;102181.38;5082427;27;20044;-72
2023/05/24 05:22:38;;;;;;;19.20;2.78;;;;;;;8.37;47.83;102190.03;5077192;27;20040;-71
2023/05/24 05:25:04;;;;;;;14.45;2.10;;;;;;;8.49;47.74;102195.13;5079929;27;20038;-72
2023/05/24 05:27:29;;;;;;;25.73;1.92;;;;;;;8.59;47.22;102190.69;5077916;27;20117;-72
2023/05/24 05:29:55;;;;;;;21.83;2.97;;;;;;;8.72;46.87;102191.47;5081609;27;20045;-70
2023/05/24 05:32:20;;;;;;;20.13;3.38;;;;;;;8.52;47.18;102195.09;5110875;27;20069;-71
2023/05/24 05:34:45;;;;;;;17.33;1.92;;;;;;;8.65;47.37;102188.03;5078055;27;20032;-72
2023/05/24 05:37:11;;;;;;;10.65;2.45;;;;;;;8.47;47.44;102191.69;5080617;27;20067;-71
2023/05/24 05:39:36;;;;;;;15.75;2.75;;;;;;;8.57;47.72;102197.66;5077320;27;20124;-70
2023/05/24 05:42:02;;;;;;;21.73;3.25;;;;;;;8.87;47.39;102191.25;5080650;27;20288;-71
2023/05/24 05:44:27;;;;;;;15.30;2.70;;;;;;;8.54;48.31;102193.34;5078726;27;20043;-71
2023/05/24 05:46:53;;;;;;;18.08;2.92;;;;;;;8.88;47.45;102198.22;5079771;27;20039;-70
2023/05/24 05:49:18;;;;;;;16.58;2.60;;;;;;;8.65;48.10;102194.97;5078337;27;20038;-70
2023/05/24 05:51:45;;;;;;;20.27;2.42;;;;;;;8.39;48.55;102198.72;5080578;27;20517;-72
2023/05/24 05:54:15;;;;;;;29.40;2.90;;;;;;;8.47;48.40;102201.22;5080774;27;20111;-73
2023/05/24 05:56:46;;;;;;;16.55;1.88;;;;;;;8.57;48.07;102200.25;5063913;27;20188;-71
2023/05/24 05:59:16;;;;;;;20.65;2.83;;;;;;;8.66;48.28;102204.53;5078555;27;20047;-71
2023/05/24 06:01:42;;;;;;;19.27;3.30;;;;;;;8.63;48.21;102202.81;5077029;28;20055;-72
2023/05/24 06:04:07;;;;;;;19.13;2.70;;;;;;;8.60;47.77;102210.66;5092781;27;20420;-72
2023/05/24 06:06:33;;;;;;;9.40;1.40;;;;;;;8.95;46.95;102212.03;5077188;27;20077;-70
2023/05/24 06:08:59;;;;;;;11.32;1.85;;;;;;;8.49;47.76;102209.88;5080287;27;20024;-71
2023/05/24 06:11:28;;;;;;;18.83;1.88;;;;;;;8.32;48.08;102210.94;5079677;27;20043;-71
2023/05/24 06:13:53;;;;;;;18.23;1.80;;;;;;;8.81;47.35;102216.53;5086399;27;20035;-72
2023/05/24 06:16:20;;;;;;;11.85;2.03;;;;;;;8.75;47.16;102213.13;5060271;28;20491;-71
2023/05/24 06:18:49;;;;;;;15.85;2.35;;;;;;;8.64;47.31;102214.09;5078489;27;20035;-72
2023/05/24 06:21:15;;;;;;;11.65;2.08;;;;;;;8.98;46.84;102220.72;5078808;27;20271;-73
2023/05/24 06:23:41;;;;;;;15.52;2.25;;;;;;;9.03;46.46;102210.22;5073378;27;20036;-72
2023/05/24 06:26:10;;;;;;;20.67;2.92;;;;;;;9.02;46.56;102223.28;5080337;27;20513;-72
2023/05/24 06:28:36;;;;;;;15.73;2.63;;;;;;;9.42;45.80;102220.16;5075969;27;20036;-72
2023/05/24 06:31:02;;;;;;;11.23;2.55;;;;;;;9.48;45.43;102220.94;5081011;28;20465;-71
2023/05/24 06:33:28;;;;;;;9.45;2.78;;;;;;;9.29;45.59;102224.66;5074861;27;20100;-72
2023/05/24 06:35:53;;;;;;;13.07;2.10;;;;;;;9.16;46.13;102229.16;5076386;28;20043;-70
2023/05/24 06:38:19;;;;;;;20.40;2.42;;;;;;;9.21;46.24;102237.81;5079149;27;20104;-72
2023/05/24 06:40:44;;;;;;;18.70;2.13;;;;;;;9.46;46.24;102237.50;5091459;27;20351;-72
2023/05/24 06:43:10;;;;;;;15.68;2.35;;;;;;;9.11;46.84;102242.25;5080471;27;20126;-73
2023/05/24 06:45:39;;;;;;;17.77;2.53;;;;;;;9.14;46.83;102237.03;5077855;27;20030;-71
2023/05/24 06:48:05;;;;;;;16.95;2.13;;;;;;;9.30;46.94;102237.69;5077869;28;20035;-71
2023/05/24 06:50:30;;;;;;;13.63;2.03;;;;;;;9.20;47.64;102249.13;5077649;27;20715;-71
2023/05/24 06:52:56;;;;;;;10.80;1.80;;;;;;;8.97;47.93;102244.19;5078172;27;20097;-71
2023/05/24 06:55:21;;;;;;;13.02;1.85;;;;;;;8.91;47.89;102249.47;5075400;28;20564;-72
2023/05/24 06:57:47;;;;;;;17.48;1.92;;;;;;;9.04;47.90;102256.25;5077129;27;20043;-72
2023/05/24 07:00:13;;;;;;;18.15;2.88;;;;;;;9.32;47.44;102256.81;5079255;28;20043;-72
2023/05/24 07:02:39;;;;;;;18.45;2.42;;;;;;;9.39;47.16;102255.84;5077518;27;20036;-71
2023/05/24 07:05:07;;;;;;;16.65;2.97;;;;;;;9.10;46.93;102263.16;5079884;28;20050;-72
2023/05/24 07:07:32;;;;;;;16.20;2.05;;;;;;;9.09;47.17;102264.03;5076108;27;20036;-72
2023/05/24 07:09:57;;;;;;;8.68;2.22;;;;;;;9.12;47.16;102266.59;5065730;28;20051;-72
2023/05/24 07:12:23;;;;;;;19.77;3.05;;;;;;;9.02;47.36;102268.47;5077041;27;20533;-71
2023/05/24 07:14:48;;;;;;;15.13;1.10;;;;;;;9.00;47.09;102269.34;5084938;27;20028;-72
2023/05/24 07:17:14;;;;;;;10.80;2.08;;;;;;;8.83;47.26;102270.41;5077956;27;20035;-72
2023/05/24 07:19:40;;;;;;;12.45;2.08;;;;;;;8.73;47.40;102273.97;5077487;27;20069;-72
2023/05/24 07:22:06;;;;;;;6.57;1.77;;;;;;;9.07;47.03;102271.00;5080358;28;20027;-72
2023/05/24 07:24:31;;;;;;;13.43;2.72;;;;;;;9.06;46.53;102275.38;5073563;27;20042;-71
2023/05/24 07:26:57;;;;;;;14.10;2.17;;;;;;;9.16;46.82;102283.94;5081366;28;22181;-70
2023/05/24 07:29:23;;;;;;;15.02;3.03;;;;;;;9.03;47.04;102274.53;5078291;27;20116;-71
2023/05/24 07:31:48;;;;;;;22.90;3.20;;;;;;;9.43;46.52;102284.50;5077991;28;20036;-71
2023/05/24 07:34:15;;;;;;;19.35;2.78;;;;;;;9.46;46.52;102284.47;5077975;27;20073;-71
2023/05/24 07:36:41;;;;;;;21.92;2.38;;;;;;;9.58;46.48;102287.75;5074192;28;20032;-71
2023/05/24 07:39:08;;;;;;;13.20;2.17;;;;;;;9.45;46.59;102293.16;5078430;27;20192;-72
2023/05/24 07:41:35;;;;;;;14.95;1.88;;;;;;;9.20;47.38;102288.25;5078341;28;22415;-71
2023/05/24 07:44:01;;;;;;;9.07;2.20;;;;;;;9.22;47.44;102285.63;5079508;27;20101;-70
2023/05/24 07:46:26;;;;;;;10.15;1.85;;;;;;;9.29;47.50;102285.53;5085768;28;20036;-71
2023/05/24 07:48:52;;;;;;;22.92;3.00;;;;;;;9.34;47.28;102285.47;5083018;27;21111;-72
2023/05/24 07:51:17;;;;;;;23.75;3.28;;;;;;;9.32;47.22;102287.22;5081666;28;20056;-72
2023/05/24 07:53:43;;;;;;;23.50;3.35;;;;;;;9.21;47.59;102291.72;5079100;27;20044;-70
2023/05/24 07:56:08;;;;;;;16.17;2.60;;;;;;;9.47;47.27;102296.63;5083057;28;20032;-70
2023/05/24 07:58:34;;;;;;;19.75;3.60;;;;;;;9.75;47.31;102299.75;5079816;27;20052;-71
2023/05/24 08:01:00;;;;;;;23.25;2.72;;;;;;;9.92;46.56;102299.53;5083730;28;20092;-70
2023/05/24 08:03:26;;;;;;;11.20;1.80;;;;;;;9.74;46.31;102296.25;5079720;27;20032;-71
2023/05/24 08:05:52;;;;;;;13.93;2.45;;;;;;;9.50;46.55;102302.69;5083118;28;20065;-70
2023/05/24 08:08:18;;;;;;;5.13;1.50;;;;;;;9.96;46.13;102301.22;5086352;27;20040;-70
2023/05/24 08:10:43;;;;;;;20.88;3.75;;;;;;;9.96;45.62;102296.00;5075783;28;20566;-70
2023/05/24 08:13:09;;;;;;;12.63;2.22;;;;;;;10.15;44.25;102292.22;5078606;27;20645;-69
2023/05/24 08:15:34;;;;;;;10.45;2.38;;;;;;;10.56;43.60;102289.81;5076662;28;20042;-71
2023/05/24 08:18:00;;;;;;;18.83;2.90;;;;;;;11.58;41.73;102283.50;5075341;27;20202;-72
2023/05/24 08:20:26;;;;;;;10.30;1.63;;;;;;;12.32;39.77;102284.44;5080633;28;20039;-71
2023/05/24 08:22:51;;;;;;;12.43;2.55;;;;;;;12.62;39.43;102277.53;5073575;27;20035;-72
2023/05/24 08:25:17;;;;;;;18.98;2.13;;;;;;;12.72;38.46;102279.03;5079488;28;20027;-71
2023/05/24 08:27:42;;;;;;;13.38;2.92;;;;;;;11.92;41.27;102282.75;5075843;27;20584;-71
2023/05/24 08:30:08;;;;;;;16.77;2.28;;;;;;;12.58;39.82;102274.13;5076843;28;20548;-71
2023/05/24 08:32:33;;;;;;;13.48;3.08;;;;;;;13.34;39.08;102280.81;5086060;27;20793;-71
2023/05/24 08:34:59;;;;;;;12.65;1.58;;;;;;;14.39;36.63;102265.25;5085238;28;20088;-71
2023/05/24 08:37:25;;;;;;;11.95;1.90;;;;;;;15.25;33.63;102267.47;5075533;27;20028;-69
2023/05/24 08:39:50;;;;;;;12.68;2.42;;;;;;;16.56;31.75;102267.53;5078232;28;20038;-70
2023/05/24 08:42:16;;;;;;;6.15;1.20;;;;;;;17.49;30.11;102267.75;5076157;27;20070;-71
2023/05/24 08:44:52;;;;;;;12.73;1.65;;;;;;;16.82;29.68;102272.53;5073756;28;20056;-71
2023/05/24 08:47:20;;;;;;;8.63;1.50;;;;;;;17.23;29.88;102288.28;5080313;27;20028;-70
2023/05/24 08:49:47;;;;;;;8.48;1.30;;;;;;;15.49;32.06;102280.66;5080121;27;20184;-71
2023/05/24 08:52:13;;;;;;;14.10;1.83;;;;;;;15.61;32.29;102288.06;5082098;28;20107;-71
2023/05/24 08:54:40;;;;;;;8.20;1.63;;;;;;;15.43;33.36;102292.28;5078670;27;20063;-70
2023/05/24 08:57:06;;;;;;;13.43;2.40;;;;;;;13.84;35.59;102304.72;5079602;27;20037;-71
2023/05/24 08:59:32;;;;;;;9.98;2.15;;;;;;;12.90;37.27;102304.78;5080787;27;20046;-71
2023/05/24 09:01:58;;;;;;;14.07;2.38;;;;;;;13.05;37.91;102314.00;5078151;27;20027;-71
2023/05/24 09:04:26;;;;;;;11.27;1.40;;;;;;;12.82;38.02;102311.97;5079033;27;20052;-71
2023/05/24 09:06:53;;;;;;;12.50;1.83;;;;;;;12.60;38.58;102311.69;5078461;27;20028;-69
2023/05/24 09:09:20;;;;;;;15.15;2.67;;;;;;;12.32;39.05;102322.00;5080842;27;20060;-71
2023/05/24 09:11:49;;;;;;;13.95;2.70;;;;;;;13.00;38.02;102315.03;5079418;27;20036;-69
2023/05/24 09:14:14;;;;;;;8.88;1.63;;;;;;;12.71;37.65;102314.03;5077573;27;20093;-70
2023/05/24 09:16:41;;;;;;;8.73;1.63;;;;;;;12.75;37.39;102320.06;5086528;27;20028;-71
2023/05/24 09:19:07;;;;;;;8.68;1.73;;;;;;;12.72;37.09;102326.25;5084756;27;20035;-71
2023/05/24 09:21:33;;;;;;;18.25;1.70;;;;;;;12.82;37.20;102321.63;5079389;27;20034;-71
2023/05/24 09:23:58;;;;;;;14.77;2.05;;;;;;;12.20;38.40;102328.41;5075708;27;20134;-71
2023/05/24 09:26:29;;;;;;;8.25;1.02;;;;;;;12.74;37.71;102331.47;5079153;27;20024;-71
2023/05/24 09:28:56;;;;;;;10.85;2.20;;;;;;;12.68;38.54;102328.06;5078631;27;20028;-71
2023/05/24 09:31:36;;;;;;;12.60;1.98;;;;;;;12.82;38.04;102326.88;5088388;27;20193;-70
2023/05/24 09:34:02;;;;;;;13.98;1.80;;;;;;;12.84;37.97;102330.31;5079211;27;20044;-72
2023/05/24 09:36:32;;;;;;;8.75;1.40;;;;;;;13.00;36.96;102331.63;5077488;27;20081;-71
2023/05/24 09:39:08;;;;;;;14.02;1.75;;;;;;;13.72;36.27;102326.97;5078342;27;20039;-71
2023/05/24 09:41:34;;;;;;;13.27;2.60;;;;;;;12.65;37.19;102324.66;5078504;27;20027;-70
2023/05/24 09:44:02;;;;;;;8.25;1.40;;;;;;;12.81;37.74;102335.66;5084325;27;20044;-69
2023/05/24 09:46:28;;;;;;;10.73;1.33;;;;;;;13.12;37.14;102327.81;5064624;27;20027;-71
2023/05/24 09:48:58;;;;;;;7.60;1.67;;;;;;;12.90;37.71;102338.03;5078094;27;20126;-71
2023/05/24 09:51:24;;;;;;;13.60;1.73;;;;;;;12.29;38.32;102336.03;5080151;28;20059;-70
2023/05/24 09:53:51;;;;;;;10.30;1.60;;;;;;;12.20;39.84;102338.00;5056000;28;20127;-69
2023/05/24 09:56:17;;;;;;;15.75;2.25;;;;;;;12.54;38.95;102338.06;5056122;28;20028;-70
2023/05/24 09:58:44;;;;;;;8.98;2.05;;;;;;;12.53;38.30;102331.06;5057849;27;20040;-71
2023/05/24 10:01:11;;;;;;;10.55;1.60;;;;;;;12.64;39.37;102339.53;5058971;28;20028;-72
2023/05/24 10:03:36;;;;;;;19.98;2.08;;;;;;;12.84;38.73;102333.78;5067816;27;20043;-71
2023/05/24 10:06:08;;;;;;;11.98;2.28;;;;;;;12.36;39.52;102341.13;5080253;27;20035;-69
2023/05/24 10:08:35;;;;;;;12.65;1.20;;;;;;;12.72;39.18;102335.91;5108560;27;20047;-71
2023/05/24 10:11:04;;;;;;;9.93;2.22;;;;;;;12.26;40.00;102337.84;5080574;27;20051;-71
2023/05/24 10:13:31;;;;;;;4.90;1.38;;;;;;;12.00;40.47;102334.09;5074828;27;20084;-72
2023/05/24 10:15:57;;;;;;;8.30;1.80;;;;;;;11.96;39.70;102331.59;5079792;28;20058;-71
2023/05/24 10:18:22;;;;;;;11.50;2.00;;;;;;;12.74;38.86;102334.97;5080566;27;20138;-71
2023/05/24 10:20:50;;;;;;;8.07;1.38;;;;;;;12.82;39.09;102329.50;5078784;28;20412;-70
2023/05/24 10:23:19;;;;;;;8.55;2.28;;;;;;;12.09;39.27;102333.03;5076539;27;20046;-70
2023/05/24 10:25:50;;;;;;;11.90;1.70;;;;;;;11.98;39.49;102342.91;5077202;28;20035;-72
2023/05/24 10:28:17;;;;;;;10.53;1.10;;;;;;;12.65;39.00;102333.41;5085341;27;20500;-70
2023/05/24 10:31:09;;;;;;;8.02;1.40;;;;;;;12.25;39.28;102344.00;5079416;27;20066;-70
2023/05/24 10:33:36;;;;;;;3.83;0.98;;;;;;;12.66;38.01;102339.50;5079025;27;20036;-71
2023/05/24 10:36:07;;;;;;;7.53;2.28;;;;;;;13.22;36.91;102339.78;5080017;28;20078;-72
2023/05/24 10:38:33;;;;;;;11.43;1.55;;;;;;;14.01;35.43;102345.38;5077173;27;20039;-69
2023/05/24 10:40:59;;;;;;;8.68;1.45;;;;;;;14.26;34.83;102348.09;5084555;28;20028;-71
2023/05/24 10:43:25;;;;;;;10.00;1.30;;;;;;;14.28;34.98;102341.88;5075618;27;20032;-69
2023/05/24 10:45:50;;;;;;;9.95;1.60;;;;;;;14.64;34.60;102349.50;5075793;28;20424;-71
2023/05/24 10:48:16;;;;;;;17.25;1.67;;;;;;;14.83;34.23;102338.34;5077185;27;20219;-71
2023/05/24 10:50:43;;;;;;;4.97;1.55;;;;;;;13.87;35.36;102353.69;5080143;28;20412;-70
2023/05/24 10:53:14;;;;;;;8.98;1.05;;;;;;;15.28;34.59;102346.41;5075448;27;20831;-71
2023/05/24 10:56:05;;;;;;;11.10;1.60;;;;;;;15.34;33.49;102342.66;5069746;28;20722;-69
2023/05/24 10:58:36;;;;;;;9.68;0.95;;;;;;;14.31;35.00;102352.28;5079709;27;20876;-71
2023/05/24 11:01:02;;;;;;;11.18;1.33;;;;;;;14.16;35.88;102350.16;5076305;27;20054;-70
2023/05/24 11:03:32;;;;;;;7.95;1.17;;;;;;;13.72;36.36;102342.75;5077385;27;20553;-71
2023/05/24 11:05:58;;;;;;;11.23;1.55;;;;;;;13.18;37.52;102355.66;5076116;28;20035;-71
2023/05/24 11:08:30;;;;;;;11.75;1.25;;;;;;;13.20;37.39;102356.47;5078384;27;20170;-71
2023/05/24 11:11:13;;;;;;;12.05;2.60;;;;;;;13.71;37.31;102350.66;5075666;28;20039;-69
2023/05/24 11:13:39;;;;;;;6.10;1.15;;;;;;;12.96;38.76;102350.13;5078379;27;20097;-71
2023/05/24 11:16:06;;;;;;;11.13;1.48;;;;;;;12.69;39.41;102361.31;5085416;28;20050;-71
2023/05/24 11:18:32;;;;;;;9.38;1.50;;;;;;;12.77;38.72;102342.75;5108767;27;20048;-71
2023/05/24 11:21:02;;;;;;;11.35;2.22;;;;;;;12.72;39.30;102355.13;5077206;28;20040;-72
2023/05/24 11:23:28;;;;;;;5.20;1.27;;;;;;;12.29;39.38;102359.63;5078225;27;20036;-70
2023/05/24 11:25:53;;;;;;;9.73;1.55;;;;;;;12.17;39.95;102369.53;5077181;28;20086;-70